Terminal Aerodrome Forecast
Issued by NWS Portland, OR

Home | Current Version | Previous Version | Text Only | Print | Product List | Glossary On
Versions: 1 2 3 4 5 6 7 8 9 10 11 12
000
FTUS46 KPQR 161733
TAFAST
TAF
KAST 161733Z 1618/1718 09008KT P6SM BKN090 OVC200
     FM162100 12009KT P6SM SCT090 OVC200
     FM170600 14011KT P6SM SCT060 BKN120
     FM171100 15013KT P6SM BKN050 OVC080
     FM171400 15014G22KT 6SM -RA SCT025 OVC040=

USA.gov is the U.S. government's official web portal to all federal, state and local government web resources and services.